Time;durP1;ratioP1;P1;durP2;ratioP2;P2;SDS_P1;SDS_P2;PMS_P1;PMS_P2;Temp;Humidity;BMP_temperature;BMP_pressure;BME280_temperature;BME280_humidity;BME280_pressure;Samples;Min_cycle;Max_cycle;Signal;HPM_P1;HPM_P2
2023/09/16 00:01:39;;;;;;;;;;;22.80;57.30;;;;;;5072585;28;19962;-55
2023/09/16 00:04:04;;;;;;;;;;;22.80;57.40;;;;;;5072594;28;19912;-55
2023/09/16 00:06:30;;;;;;;;;;;22.80;57.30;;;;;;5072668;28;19916;-56
2023/09/16 00:08:55;;;;;;;;;;;22.80;57.40;;;;;;5072549;28;19912;-56
2023/09/16 00:11:21;;;;;;;;;;;22.80;57.40;;;;;;5072398;28;20276;-56
2023/09/16 00:13:47;;;;;;;;;;;22.80;57.40;;;;;;5072445;28;20398;-56
2023/09/16 00:16:15;;;;;;;;;;;22.70;57.30;;;;;;5072548;28;19915;-55
2023/09/16 00:18:41;;;;;;;;;;;22.70;57.40;;;;;;5072406;28;19915;-56
2023/09/16 00:21:06;;;;;;;;;;;22.70;57.30;;;;;;5072417;28;19908;-56
2023/09/16 00:23:32;;;;;;;;;;;22.70;57.40;;;;;;5072370;28;19908;-55
2023/09/16 00:25:58;;;;;;;;;;;22.70;57.30;;;;;;5071021;28;19916;-56
2023/09/16 00:28:25;;;;;;;;;;;22.70;57.30;;;;;;5072282;28;19960;-55
2023/09/16 00:30:51;;;;;;;;;;;22.70;57.40;;;;;;5075229;28;19973;-55
2023/09/16 00:33:16;;;;;;;;;;;22.70;57.40;;;;;;5074749;28;19912;-55
2023/09/16 00:35:41;;;;;;;;;;;22.70;57.40;;;;;;5076026;28;19931;-55
2023/09/16 00:38:08;;;;;;;;;;;22.70;57.50;;;;;;5074702;28;19909;-55
2023/09/16 00:40:34;;;;;;;;;;;22.70;57.50;;;;;;5075924;28;20365;-55
2023/09/16 00:43:00;;;;;;;;;;;22.70;57.50;;;;;;5075895;28;19952;-55
2023/09/16 00:45:25;;;;;;;;;;;22.70;57.50;;;;;;5075711;28;20269;-56
2023/09/16 00:47:51;;;;;;;;;;;22.70;57.50;;;;;;5075722;28;19995;-55
2023/09/16 00:50:17;;;;;;;;;;;22.70;57.50;;;;;;5075603;28;20372;-56
2023/09/16 00:53:09;;;;;;;;;;;22.70;57.50;;;;;;5075499;28;19999;-55
2023/09/16 00:55:35;;;;;;;;;;;22.70;57.50;;;;;;5072672;28;20422;-55
2023/09/16 00:58:01;;;;;;;;;;;22.70;57.50;;;;;;5075585;28;19912;-55
2023/09/16 01:00:26;;;;;;;;;;;22.70;58.20;;;;;;5074279;28;19909;-55
2023/09/16 01:02:52;;;;;;;;;;;22.70;57.60;;;;;;5075540;28;19962;-55
2023/09/16 01:05:17;;;;;;;;;;;22.70;57.60;;;;;;5075341;28;19912;-55
2023/09/16 01:07:45;;;;;;;;;;;22.70;57.60;;;;;;5074190;28;19909;-55
2023/09/16 01:10:11;;;;;;;;;;;22.70;57.60;;;;;;5075312;28;20023;-55
2023/09/16 01:12:39;;;;;;;;;;;22.70;57.60;;;;;;5075384;28;19999;-55
2023/09/16 01:15:05;;;;;;;;;;;22.70;57.60;;;;;;5075286;28;19931;-55
2023/09/16 01:17:32;;;;;;;;;;;22.60;57.60;;;;;;5075531;28;20012;-55
2023/09/16 01:19:59;;;;;;;;;;;22.60;57.70;;;;;;5074043;28;19932;-55
2023/09/16 01:22:24;;;;;;;;;;;22.60;57.70;;;;;;5073919;28;20527;-55
2023/09/16 01:24:50;;;;;;;;;;;22.60;57.60;;;;;;5075085;28;19908;-55
2023/09/16 01:27:16;;;;;;;;;;;22.60;57.70;;;;;;5073725;28;19912;-55
2023/09/16 01:29:41;;;;;;;;;;;22.60;57.70;;;;;;5073754;28;19919;-55
2023/09/16 01:32:07;;;;;;;;;;;22.60;57.70;;;;;;5073692;28;19915;-55
2023/09/16 01:34:39;;;;;;;;;;;22.60;57.80;;;;;;5074904;28;20422;-55
2023/09/16 01:37:05;;;;;;;;;;;22.60;57.70;;;;;;5073656;28;19908;-55
2023/09/16 01:39:31;;;;;;;;;;;22.60;57.80;;;;;;5074834;28;20275;-55
2023/09/16 01:41:56;;;;;;;;;;;22.60;57.80;;;;;;5072343;28;20357;-55
2023/09/16 01:44:22;;;;;;;;;;;22.60;57.80;;;;;;5073452;28;20322;-55
2023/09/16 01:46:47;;;;;;;;;;;22.60;57.90;;;;;;5073500;28;19913;-55
2023/09/16 01:49:13;;;;;;;;;;;22.60;57.90;;;;;;5074731;28;19962;-55
2023/09/16 01:51:38;;;;;;;;;;;22.60;57.90;;;;;;5074522;28;19920;-55
2023/09/16 01:54:04;;;;;;;;;;;22.60;58.00;;;;;;5074557;28;19908;-54
2023/09/16 01:56:30;;;;;;;;;;;22.60;58.00;;;;;;5073058;28;19916;-55
2023/09/16 01:58:55;;;;;;;;;;;22.50;58.00;;;;;;5074461;28;19913;-55
2023/09/16 02:01:21;;;;;;;;;;;22.50;58.00;;;;;;5074346;28;19931;-55
2023/09/16 02:03:46;;;;;;;;;;;22.50;58.00;;;;;;5074277;28;19908;-55
2023/09/16 02:06:12;;;;;;;;;;;22.50;58.00;;;;;;5074273;28;19935;-55
2023/09/16 02:08:37;;;;;;;;;;;22.50;58.00;;;;;;5074138;28;19955;-55
2023/09/16 02:11:04;;;;;;;;;;;22.50;58.00;;;;;;5074121;28;19913;-55
2023/09/16 02:13:31;;;;;;;;;;;22.50;58.00;;;;;;5074168;28;19952;-55
2023/09/16 02:15:56;;;;;;;;;;;22.50;58.00;;;;;;5074164;28;19934;-55
2023/09/16 02:18:22;;;;;;;;;;;22.50;58.20;;;;;;5074037;28;20284;-55
2023/09/16 02:20:47;;;;;;;;;;;22.50;58.20;;;;;;5074097;28;19930;-55
2023/09/16 02:23:13;;;;;;;;;;;22.50;58.30;;;;;;5072739;28;19908;-55
2023/09/16 02:25:39;;;;;;;;;;;22.50;58.40;;;;;;5073865;28;19909;-55
2023/09/16 02:28:04;;;;;;;;;;;22.50;58.40;;;;;;5073805;28;19912;-55
2023/09/16 02:30:30;;;;;;;;;;;22.50;58.30;;;;;;5073946;28;19971;-55
2023/09/16 02:32:55;;;;;;;;;;;22.50;58.40;;;;;;5073760;28;20011;-56
2023/09/16 02:35:21;;;;;;;;;;;22.50;58.40;;;;;;5073688;28;20372;-55
2023/09/16 02:37:46;;;;;;;;;;;22.50;58.40;;;;;;5073598;28;19908;-54
2023/09/16 02:40:12;;;;;;;;;;;22.50;58.40;;;;;;5073552;28;19915;-55
2023/09/16 02:42:37;;;;;;;;;;;22.50;58.50;;;;;;5073526;28;19913;-56
2023/09/16 02:45:03;;;;;;;;;;;22.50;58.50;;;;;;5073527;28;19913;-55
2023/09/16 02:47:29;;;;;;;;;;;22.50;58.50;;;;;;5073380;28;19912;-55
2023/09/16 02:49:54;;;;;;;;;;;22.50;58.50;;;;;;5073367;28;20327;-55
2023/09/16 02:52:20;;;;;;;;;;;22.40;58.50;;;;;;5072793;28;19955;-55
2023/09/16 02:54:46;;;;;;;;;;;22.50;58.50;;;;;;5073406;28;19995;-55
2023/09/16 02:57:11;;;;;;;;;;;22.40;58.40;;;;;;5073157;28;19948;-55
2023/09/16 02:59:37;;;;;;;;;;;22.40;58.50;;;;;;5073270;28;19927;-55
2023/09/16 03:02:02;;;;;;;;;;;22.50;59.20;;;;;;5073555;28;19967;-55
2023/09/16 03:04:28;;;;;;;;;;;22.40;58.60;;;;;;5073163;28;20428;-55
2023/09/16 03:06:53;;;;;;;;;;;22.40;58.60;;;;;;5071907;28;19909;-55
2023/09/16 03:09:19;;;;;;;;;;;22.40;59.30;;;;;;5073051;28;19913;-55
2023/09/16 03:11:45;;;;;;;;;;;22.50;58.70;;;;;;5073109;28;20351;-54
2023/09/16 03:14:10;;;;;;;;;;;22.40;58.70;;;;;;5073113;28;20257;-55
2023/09/16 03:16:36;;;;;;;;;;;22.40;58.70;;;;;;5073004;28;19908;-55
2023/09/16 03:19:01;;;;;;;;;;;22.40;58.70;;;;;;5073002;28;20519;-55
2023/09/16 03:21:27;;;;;;;;;;;22.40;58.70;;;;;;5073037;28;19961;-55
2023/09/16 03:23:52;;;;;;;;;;;22.40;58.80;;;;;;5071769;28;19983;-55
2023/09/16 03:26:17;;;;;;;;;;;22.40;58.80;;;;;;5073039;28;19909;-55
2023/09/16 03:28:45;;;;;;;;;;;22.40;58.80;;;;;;5072868;28;19915;-55
2023/09/16 03:31:10;;;;;;;;;;;22.40;58.70;;;;;;5072852;28;19909;-55
2023/09/16 03:33:36;;;;;;;;;;;22.40;58.80;;;;;;5088479;28;20287;-55
2023/09/16 03:36:02;;;;;;;;;;;22.40;58.90;;;;;;5071720;28;19909;-55
2023/09/16 03:38:28;;;;;;;;;;;22.40;59.00;;;;;;5072739;28;20083;-54
2023/09/16 03:40:54;;;;;;;;;;;22.30;58.70;;;;;;5072886;28;19908;-55
2023/09/16 03:43:20;;;;;;;;;;;22.40;58.80;;;;;;5071463;28;20003;-55
2023/09/16 03:45:45;;;;;;;;;;;22.40;58.80;;;;;;5073132;28;19966;-55
2023/09/16 03:48:11;;;;;;;;;;;22.40;58.80;;;;;;5072731;28;19918;-55
2023/09/16 03:50:36;;;;;;;;;;;22.40;58.90;;;;;;5072553;28;19912;-55
2023/09/16 03:53:01;;;;;;;;;;;22.40;59.00;;;;;;5071848;28;20394;-55
2023/09/16 03:55:27;;;;;;;;;;;22.30;58.80;;;;;;5070448;28;19908;-56
2023/09/16 03:57:52;;;;;;;;;;;22.30;58.90;;;;;;5070450;28;19908;-55
2023/09/16 04:00:18;;;;;;;;;;;22.30;58.90;;;;;;5071645;28;20265;-55
2023/09/16 04:02:43;;;;;;;;;;;22.30;59.00;;;;;;5071697;28;19962;-55
2023/09/16 04:05:10;;;;;;;;;;;22.30;58.90;;;;;;5073393;28;20261;-55
2023/09/16 04:07:35;;;;;;;;;;;22.30;59.00;;;;;;5075122;28;19913;-55
2023/09/16 04:10:01;;;;;;;;;;;22.30;59.00;;;;;;5075274;28;20299;-55
2023/09/16 04:12:26;;;;;;;;;;;22.30;58.90;;;;;;5073874;28;20273;-55
2023/09/16 04:14:52;;;;;;;;;;;22.30;59.00;;;;;;5075082;28;19909;-55
2023/09/16 04:17:17;;;;;;;;;;;22.30;59.00;;;;;;5074971;28;19916;-55
2023/09/16 04:19:42;;;;;;;;;;;22.30;59.00;;;;;;5074938;28;19914;-55
2023/09/16 04:22:08;;;;;;;;;;;22.30;59.00;;;;;;5074926;28;19954;-55
2023/09/16 04:24:33;;;;;;;;;;;22.30;59.00;;;;;;5074881;28;19908;-55
2023/09/16 04:26:59;;;;;;;;;;;22.30;59.10;;;;;;5073792;28;20356;-55
2023/09/16 04:29:24;;;;;;;;;;;22.20;59.10;;;;;;5074735;28;20276;-55
2023/09/16 04:31:51;;;;;;;;;;;22.20;59.20;;;;;;5074808;28;20304;-55
2023/09/16 04:34:16;;;;;;;;;;;22.30;59.20;;;;;;5074784;28;19919;-55
2023/09/16 04:36:42;;;;;;;;;;;22.20;59.20;;;;;;5075069;28;19909;-55
2023/09/16 04:39:08;;;;;;;;;;;22.20;59.20;;;;;;5073398;28;19950;-55
2023/09/16 04:41:34;;;;;;;;;;;22.20;59.20;;;;;;5074970;28;20281;-55
2023/09/16 04:44:00;;;;;;;;;;;22.20;59.30;;;;;;5074764;28;19909;-55
2023/09/16 04:46:25;;;;;;;;;;;22.20;59.20;;;;;;5074616;28;19956;-55
2023/09/16 04:48:50;;;;;;;;;;;22.20;59.30;;;;;;5073489;28;20367;-55
2023/09/16 04:51:16;;;;;;;;;;;22.20;59.30;;;;;;5012643;28;1752134;-55
2023/09/16 04:53:41;;;;;;;;;;;22.20;59.50;;;;;;5075699;28;19995;-55
2023/09/16 04:56:10;;;;;;;;;;;22.20;59.90;;;;;;5075436;28;19908;-55
2023/09/16 04:58:35;;;;;;;;;;;22.20;59.20;;;;;;5075648;28;19919;-55
2023/09/16 05:01:01;;;;;;;;;;;22.20;59.30;;;;;;5074367;28;19908;-55
2023/09/16 05:03:26;;;;;;;;;;;22.20;59.30;;;;;;5075474;28;19908;-55
2023/09/16 05:05:52;;;;;;;;;;;22.20;59.40;;;;;;5075416;28;19909;-55
2023/09/16 05:08:18;;;;;;;;;;;22.20;59.30;;;;;;5075361;28;20392;-55
2023/09/16 05:10:43;;;;;;;;;;;22.10;59.40;;;;;;5075275;28;19919;-55
2023/09/16 05:13:09;;;;;;;;;;;22.20;59.40;;;;;;5075193;28;19999;-55
2023/09/16 05:15:34;;;;;;;;;;;22.20;59.40;;;;;;5075160;28;20348;-55
2023/09/16 05:18:00;;;;;;;;;;;22.10;59.40;;;;;;5074079;28;20239;-56
2023/09/16 05:20:26;;;;;;;;;;;22.20;59.60;;;;;;5075179;28;19965;-55
2023/09/16 05:22:52;;;;;;;;;;;22.10;59.50;;;;;;5075254;28;19953;-55
2023/09/16 05:25:17;;;;;;;;;;;22.10;59.40;;;;;;5075028;28;19908;-54
2023/09/16 05:27:43;;;;;;;;;;;22.10;59.60;;;;;;5075174;28;19997;-55
2023/09/16 05:30:08;;;;;;;;;;;22.10;59.60;;;;;;5074936;28;20287;-54
2023/09/16 05:32:34;;;;;;;;;;;22.10;59.60;;;;;;5074900;28;19999;-55
2023/09/16 05:35:00;;;;;;;;;;;22.10;59.60;;;;;;5074864;28;19916;-55
2023/09/16 05:37:25;;;;;;;;;;;22.10;59.60;;;;;;5074879;28;19912;-55
2023/09/16 05:39:51;;;;;;;;;;;22.10;59.70;;;;;;5074894;28;19909;-55
2023/09/16 05:42:16;;;;;;;;;;;22.10;59.70;;;;;;5074768;28;19962;-55
2023/09/16 05:44:42;;;;;;;;;;;22.10;59.60;;;;;;5075219;28;19945;-55
2023/09/16 05:47:07;;;;;;;;;;;22.10;59.70;;;;;;5074918;28;19915;-55
2023/09/16 05:49:33;;;;;;;;;;;22.10;59.70;;;;;;5073440;28;19919;-55
2023/09/16 05:51:58;;;;;;;;;;;22.10;59.70;;;;;;5074516;28;20295;-55
2023/09/16 05:54:25;;;;;;;;;;;22.10;59.80;;;;;;5074604;28;19931;-55
2023/09/16 05:56:50;;;;;;;;;;;22.10;60.60;;;;;;5074589;28;19908;-55
2023/09/16 05:59:16;;;;;;;;;;;22.10;59.90;;;;;;5073285;28;19913;-55
2023/09/16 06:01:41;;;;;;;;;;;22.10;59.90;;;;;;5073122;28;20039;-55
2023/09/16 06:04:10;;;;;;;;;;;22.10;60.00;;;;;;5073044;28;20361;-55
2023/09/16 06:06:35;;;;;;;;;;;22.10;60.00;;;;;;5074339;28;20400;-55
2023/09/16 06:09:03;;;;;;;;;;;22.10;60.00;;;;;;5074280;28;19915;-55
2023/09/16 06:11:28;;;;;;;;;;;22.10;60.00;;;;;;5074224;28;19915;-54
2023/09/16 06:13:54;;;;;;;;;;;22.00;60.00;;;;;;5074420;28;20003;-55
2023/09/16 06:16:20;;;;;;;;;;;22.00;60.10;;;;;;5074165;28;19909;-55
2023/09/16 06:18:45;;;;;;;;;;;22.00;60.10;;;;;;5074312;28;20007;-55
2023/09/16 06:21:11;;;;;;;;;;;22.00;60.10;;;;;;5072699;28;19908;-55
2023/09/16 06:23:36;;;;;;;;;;;22.00;60.30;;;;;;5072793;28;19908;-55
2023/09/16 06:26:01;;;;;;;;;;;22.00;60.30;;;;;;5072737;28;20265;-55
2023/09/16 06:28:27;;;;;;;;;;;22.00;60.50;;;;;;5072120;28;19908;-55
2023/09/16 06:30:53;;;;;;;;;;;22.00;60.50;;;;;;5073768;28;19965;-55
2023/09/16 06:33:18;;;;;;;;;;;22.00;60.60;;;;;;5073832;28;19955;-55
2023/09/16 06:35:44;;;;;;;;;;;22.00;60.80;;;;;;5072658;28;19937;-55
2023/09/16 06:38:09;;;;;;;;;;;22.00;60.70;;;;;;5073672;28;19909;-55
2023/09/16 06:40:35;;;;;;;;;;;22.00;60.80;;;;;;5073886;28;20280;-55
2023/09/16 06:43:00;;;;;;;;;;;22.00;60.80;;;;;;5073642;28;19975;-55
2023/09/16 06:45:26;;;;;;;;;;;22.00;60.90;;;;;;5073518;28;19923;-55
2023/09/16 06:47:54;;;;;;;;;;;22.00;61.00;;;;;;5073597;28;19908;-55
2023/09/16 06:50:20;;;;;;;;;;;22.00;61.00;;;;;;5073307;28;19912;-55
2023/09/16 06:52:45;;;;;;;;;;;22.00;61.00;;;;;;5073235;28;19984;-55
2023/09/16 06:55:11;;;;;;;;;;;22.00;61.20;;;;;;5073266;28;19908;-56
2023/09/16 06:57:36;;;;;;;;;;;22.00;61.10;;;;;;5072078;28;19908;-55
2023/09/16 07:00:01;;;;;;;;;;;21.90;61.10;;;;;;5073409;28;19912;-55
2023/09/16 07:02:27;;;;;;;;;;;21.90;61.10;;;;;;5073261;28;19909;-55
2023/09/16 07:04:55;;;;;;;;;;;22.00;61.40;;;;;;5073358;28;20357;-55
2023/09/16 07:07:23;;;;;;;;;;;21.90;61.60;;;;;;5073250;28;19920;-55
2023/09/16 07:09:51;;;;;;;;;;;21.90;61.50;;;;;;5073109;28;19913;-54
2023/09/16 07:12:17;;;;;;;;;;;21.90;61.80;;;;;;5073075;28;19912;-55
2023/09/16 07:14:42;;;;;;;;;;;21.80;62.00;;;;;;5073058;28;19915;-55
2023/09/16 07:17:08;;;;;;;;;;;21.80;61.90;;;;;;5073062;28;19920;-55
2023/09/16 07:19:33;;;;;;;;;;;21.90;62.10;;;;;;5073093;28;19908;-55
2023/09/16 07:21:59;;;;;;;;;;;21.90;62.20;;;;;;5071972;28;19908;-55
2023/09/16 07:24:25;;;;;;;;;;;21.90;62.20;;;;;;5072893;28;19959;-54
2023/09/16 07:26:50;;;;;;;;;;;21.90;62.20;;;;;;5073363;28;19930;-55
2023/09/16 07:29:17;;;;;;;;;;;21.80;62.10;;;;;;5072903;28;19922;-55
2023/09/16 07:31:42;;;;;;;;;;;21.90;62.50;;;;;;5073190;28;20261;-55
2023/09/16 07:34:08;;;;;;;;;;;21.90;62.70;;;;;;5073023;28;19908;-55
2023/09/16 07:36:33;;;;;;;;;;;21.80;62.50;;;;;;5072940;28;20246;-55
2023/09/16 07:38:58;;;;;;;;;;;21.90;62.70;;;;;;5071913;28;20347;-55
2023/09/16 07:41:24;;;;;;;;;;;21.80;62.50;;;;;;5072736;28;20003;-55
2023/09/16 07:43:49;;;;;;;;;;;21.80;62.60;;;;;;5072780;28;19916;-55
2023/09/16 07:46:15;;;;;;;;;;;21.90;63.00;;;;;;5072842;28;19962;-55
2023/09/16 07:48:41;;;;;;;;;;;21.80;62.80;;;;;;5072799;28;19961;-54
2023/09/16 07:51:06;;;;;;;;;;;21.90;63.10;;;;;;5072548;28;20028;-55
2023/09/16 07:53:31;;;;;;;;;;;21.80;63.30;;;;;;5072615;28;19915;-55
2023/09/16 07:55:57;;;;;;;;;;;21.80;63.40;;;;;;5072613;28;20365;-55
2023/09/16 07:58:22;;;;;;;;;;;21.80;63.60;;;;;;5072737;28;20322;-55
2023/09/16 08:00:48;;;;;;;;;;;21.90;63.50;;;;;;5072812;28;19909;-55
2023/09/16 08:03:13;;;;;;;;;;;21.90;63.10;;;;;;5072607;28;19962;-55
2023/09/16 08:05:39;;;;;;;;;;;21.80;63.10;;;;;;5072583;28;19916;-55
2023/09/16 08:08:04;;;;;;;;;;;21.80;63.30;;;;;;5072585;28;19909;-55
2023/09/16 08:10:30;;;;;;;;;;;21.90;63.30;;;;;;5072452;28;19959;-54
2023/09/16 08:12:55;;;;;;;;;;;21.90;63.50;;;;;;5072565;28;19919;-54
2023/09/16 08:15:21;;;;;;;;;;;21.80;63.60;;;;;;5072548;28;19908;-54
2023/09/16 08:17:46;;;;;;;;;;;21.80;63.30;;;;;;5072529;28;20451;-54
2023/09/16 08:20:12;;;;;;;;;;;21.80;63.40;;;;;;5072378;28;19966;-54
2023/09/16 08:22:38;;;;;;;;;;;21.90;63.20;;;;;;5072462;28;19908;-54
2023/09/16 08:25:03;;;;;;;;;;;21.90;63.30;;;;;;5072248;28;19916;-56
2023/09/16 08:27:29;;;;;;;;;;;21.90;63.30;;;;;;5072630;28;19930;-54
2023/09/16 08:29:54;;;;;;;;;;;21.90;63.40;;;;;;5072193;28;20292;-54
2023/09/16 08:32:22;;;;;;;;;;;21.90;63.40;;;;;;5072458;28;19916;-54
2023/09/16 08:34:49;;;;;;;;;;;21.90;63.60;;;;;;5072385;28;19919;-54
2023/09/16 08:37:14;;;;;;;;;;;21.90;63.70;;;;;;5072272;28;19954;-54
2023/09/16 08:39:40;;;;;;;;;;;21.80;63.40;;;;;;5072175;28;19916;-54
2023/09/16 08:42:07;;;;;;;;;;;21.90;63.30;;;;;;5072276;28;19973;-54
2023/09/16 08:44:36;;;;;;;;;;;21.90;63.50;;;;;;5072236;28;20011;-54
2023/09/16 08:47:05;;;;;;;;;;;22.00;63.60;;;;;;5072200;28;19915;-57
2023/09/16 08:49:30;;;;;;;;;;;21.90;63.90;;;;;;5070937;28;19951;-56
2023/09/16 08:51:57;;;;;;;;;;;22.00;63.80;;;;;;5075071;28;19947;-55
2023/09/16 08:54:23;;;;;;;;;;;21.90;64.00;;;;;;5075675;28;19909;-55
2023/09/16 08:56:48;;;;;;;;;;;21.90;63.90;;;;;;5074367;28;19916;-54
2023/09/16 08:59:14;;;;;;;;;;;22.00;64.20;;;;;;5074304;28;19912;-54
2023/09/16 09:01:40;;;;;;;;;;;22.00;64.00;;;;;;5075660;28;20049;-54
2023/09/16 09:04:05;;;;;;;;;;;22.00;63.60;;;;;;5075980;28;20112;-54
2023/09/16 09:06:31;;;;;;;;;;;22.00;63.90;;;;;;5074120;28;19912;-54
2023/09/16 09:08:56;;;;;;;;;;;22.00;64.20;;;;;;5075416;28;19916;-54
2023/09/16 09:11:22;;;;;;;;;;;22.00;64.60;;;;;;5075322;28;20438;-54
2023/09/16 09:13:48;;;;;;;;;;;22.00;64.30;;;;;;5075361;28;20418;-54
2023/09/16 09:16:17;;;;;;;;;;;22.00;64.80;;;;;;5074017;28;19931;-55
2023/09/16 09:18:42;;;;;;;;;;;22.00;64.60;;;;;;5075299;28;20395;-54
2023/09/16 09:21:08;;;;;;;;;;;22.00;64.90;;;;;;5074023;28;19908;-55
2023/09/16 09:23:33;;;;;;;;;;;22.10;64.50;;;;;;5075128;28;19915;-54
2023/09/16 09:25:59;;;;;;;;;;;22.10;64.40;;;;;;5075116;28;19970;-55
2023/09/16 09:28:26;;;;;;;;;;;22.10;64.30;;;;;;5075176;28;19912;-54
2023/09/16 09:30:52;;;;;;;;;;;22.10;64.50;;;;;;5075043;28;19912;-54
2023/09/16 09:33:18;;;;;;;;;;;22.10;64.40;;;;;;5074998;28;20364;-54
2023/09/16 09:35:44;;;;;;;;;;;22.20;64.40;;;;;;5073862;28;19995;-54
2023/09/16 09:38:10;;;;;;;;;;;22.20;64.00;;;;;;5074939;28;19955;-54
2023/09/16 09:40:35;;;;;;;;;;;22.30;63.90;;;;;;5074901;28;19915;-54
2023/09/16 09:43:00;;;;;;;;;;;22.40;63.80;;;;;;5074788;28;19916;-55
2023/09/16 09:45:27;;;;;;;;;;;22.50;63.70;;;;;;5074817;28;19920;-54
2023/09/16 09:47:52;;;;;;;;;;;22.50;63.50;;;;;;5074795;28;20339;-54
2023/09/16 09:50:18;;;;;;;;;;;22.50;63.40;;;;;;5074630;28;19912;-54
2023/09/16 09:52:44;;;;;;;;;;;22.50;63.30;;;;;;5074595;28;20261;-55
2023/09/16 09:55:10;;;;;;;;;;;22.50;63.20;;;;;;5073218;28;19962;-54
2023/09/16 09:57:35;;;;;;;;;;;22.60;63.10;;;;;;5073241;28;19913;-54
2023/09/16 10:00:01;;;;;;;;;;;22.70;63.00;;;;;;5073259;28;20364;-54
2023/09/16 10:02:26;;;;;;;;;;;22.70;62.80;;;;;;5072524;28;20368;-54
2023/09/16 10:04:58;;;;;;;;;;;22.80;62.60;;;;;;5074452;28;19909;-54
2023/09/16 10:07:24;;;;;;;;;;;22.80;62.60;;;;;;5074278;28;19973;-54
2023/09/16 10:09:50;;;;;;;;;;;22.80;62.70;;;;;;5074203;28;19919;-54
2023/09/16 10:12:15;;;;;;;;;;;22.80;62.30;;;;;;5074203;28;19913;-54
2023/09/16 10:14:41;;;;;;;;;;;22.80;62.40;;;;;;5074145;28;19908;-55
2023/09/16 10:17:06;;;;;;;;;;;22.90;62.20;;;;;;5074082;28;19915;-54
2023/09/16 10:19:32;;;;;;;;;;;23.00;63.00;;;;;;5074142;28;19919;-55
2023/09/16 10:21:57;;;;;;;;;;;23.00;62.00;;;;;;5073916;28;19909;-54
2023/09/16 10:24:22;;;;;;;;;;;23.00;61.90;;;;;;5073874;28;19908;-54
2023/09/16 10:26:48;;;;;;;;;;;23.00;62.00;;;;;;5073860;28;20415;-54
2023/09/16 10:29:13;;;;;;;;;;;23.10;61.90;;;;;;5073877;28;20375;-54
2023/09/16 10:31:39;;;;;;;;;;;23.10;61.90;;;;;;5073889;28;19967;-54
2023/09/16 10:34:04;;;;;;;;;;;23.10;61.90;;;;;;5073888;28;19943;-54
2023/09/16 10:36:30;;;;;;;;;;;23.10;61.90;;;;;;5073677;28;19915;-54
2023/09/16 10:38:55;;;;;;;;;;;23.10;61.90;;;;;;5072406;28;19912;-54
2023/09/16 10:41:21;;;;;;;;;;;23.10;61.90;;;;;;5055638;28;19909;-55
2023/09/16 10:43:46;;;;;;;;;;;23.10;62.00;;;;;;5073604;28;20000;-54
2023/09/16 10:46:12;;;;;;;;;;;23.20;62.20;;;;;;5073461;28;19908;-54
2023/09/16 10:48:38;;;;;;;;;;;23.20;62.00;;;;;;5073566;28;19915;-55
2023/09/16 10:51:08;;;;;;;;;;;23.20;62.10;;;;;;5073215;28;19928;-55
2023/09/16 10:53:36;;;;;;;;;;;23.20;62.40;;;;;;5073600;28;19908;-55
2023/09/16 10:56:16;;;;;;;;;;;23.20;62.60;;;;;;5073542;28;19916;-54
2023/09/16 10:58:48;;;;;;;;;;;23.20;62.60;;;;;;5072124;28;19916;-55
2023/09/16 11:01:26;;;;;;;;;;;23.30;62.20;;;;;;5072312;28;19908;-54
2023/09/16 11:03:53;;;;;;;;;;;23.40;61.60;;;;;;5072135;28;19908;-54
2023/09/16 11:06:18;;;;;;;;;;;23.40;61.70;;;;;;5073363;28;19916;-55
2023/09/16 11:08:44;;;;;;;;;;;23.40;61.80;;;;;;5071901;28;20364;-54
2023/09/16 11:11:09;;;;;;;;;;;23.50;62.00;;;;;;5073220;28;19979;-54
2023/09/16 11:13:35;;;;;;;;;;;23.50;61.80;;;;;;5071720;28;20284;-54
2023/09/16 11:16:00;;;;;;;;;;;23.50;61.70;;;;;;5073212;28;20315;-55
2023/09/16 11:18:25;;;;;;;;;;;23.50;61.80;;;;;;5073128;28;19919;-54
2023/09/16 11:20:51;;;;;;;;;;;23.50;62.20;;;;;;5071754;28;19909;-55
2023/09/16 11:23:16;;;;;;;;;;;23.50;62.30;;;;;;5072941;28;20425;-55
2023/09/16 11:25:42;;;;;;;;;;;23.60;62.30;;;;;;5072928;28;19912;-55
2023/09/16 11:28:11;;;;;;;;;;;23.60;61.70;;;;;;5073183;28;19908;-55
2023/09/16 11:30:36;;;;;;;;;;;23.70;61.50;;;;;;5073325;28;19917;-55
2023/09/16 11:33:04;;;;;;;;;;;23.70;61.40;;;;;;5072923;28;19957;-54
2023/09/16 11:35:30;;;;;;;;;;;23.70;61.40;;;;;;5072878;28;19957;-55
2023/09/16 11:37:56;;;;;;;;;;;23.70;61.40;;;;;;5071715;28;19991;-54
2023/09/16 11:40:27;;;;;;;;;;;23.80;60.80;;;;;;5072838;28;19909;-54
2023/09/16 11:42:53;;;;;;;;;;;23.90;60.00;;;;;;5072855;28;20372;-54
2023/09/16 11:45:19;;;;;;;;;;;23.80;60.00;;;;;;5072868;28;20012;-55
2023/09/16 11:47:46;;;;;;;;;;;23.90;59.70;;;;;;5072837;28;19978;-55
2023/09/16 11:50:24;;;;;;;;;;;23.90;59.00;;;;;;5072657;28;20376;-54
2023/09/16 11:52:50;;;;;;;;;;;23.90;59.00;;;;;;5072676;28;19924;-55
2023/09/16 11:55:15;;;;;;;;;;;23.90;58.80;;;;;;5072625;28;20274;-55
2023/09/16 11:57:41;;;;;;;;;;;24.00;58.30;;;;;;5071310;28;20070;-55
2023/09/16 12:00:07;;;;;;;;;;;24.00;58.30;;;;;;5072748;28;19999;-55
2023/09/16 12:02:32;;;;;;;;;;;24.00;58.30;;;;;;5072971;28;20347;-55
2023/09/16 12:04:58;;;;;;;;;;;24.10;57.70;;;;;;5071809;28;19908;-55
2023/09/16 12:07:24;;;;;;;;;;;24.10;57.50;;;;;;5071668;28;19909;-55
2023/09/16 12:09:50;;;;;;;;;;;24.10;57.20;;;;;;5072407;28;19916;-55
2023/09/16 12:12:15;;;;;;;;;;;24.20;57.00;;;;;;5072584;28;19908;-55
2023/09/16 12:14:42;;;;;;;;;;;24.10;57.00;;;;;;5071424;28;19959;-55
2023/09/16 12:17:08;;;;;;;;;;;24.20;56.60;;;;;;5071447;28;19909;-55
2023/09/16 12:19:34;;;;;;;;;;;24.20;55.80;;;;;;5071208;28;19909;-55
2023/09/16 12:21:59;;;;;;;;;;;24.10;56.00;;;;;;5072508;28;20483;-55
2023/09/16 12:24:25;;;;;;;;;;;24.10;55.70;;;;;;5072481;28;19953;-54
2023/09/16 12:26:50;;;;;;;;;;;24.00;55.40;;;;;;5075444;28;19908;-54
2023/09/16 12:29:16;;;;;;;;;;;24.00;54.90;;;;;;5076187;28;19919;-54
2023/09/16 12:31:42;;;;;;;;;;;24.10;55.20;;;;;;5076152;28;19915;-54
2023/09/16 12:34:13;;;;;;;;;;;24.10;55.50;;;;;;5076269;28;19912;-55
2023/09/16 12:36:38;;;;;;;;;;;24.10;55.70;;;;;;5076250;28;19909;-55
2023/09/16 12:39:04;;;;;;;;;;;24.10;55.50;;;;;;5075988;28;20012;-55
2023/09/16 12:41:29;;;;;;;;;;;24.20;55.60;;;;;;5075920;28;19978;-55
2023/09/16 12:43:56;;;;;;;;;;;24.20;55.80;;;;;;5074641;28;19916;-55
2023/09/16 12:46:21;;;;;;;;;;;24.20;55.70;;;;;;5074718;28;19908;-54
2023/09/16 12:48:47;;;;;;;;;;;24.20;56.10;;;;;;5075966;28;19931;-55
2023/09/16 12:51:13;;;;;;;;;;;24.20;56.30;;;;;;5074400;28;19920;-55
2023/09/16 12:53:39;;;;;;;;;;;24.30;55.60;;;;;;5075816;28;19909;-54
2023/09/16 12:56:04;;;;;;;;;;;24.40;55.30;;;;;;5074509;28;19915;-54
2023/09/16 12:58:30;;;;;;;;;;;24.40;55.60;;;;;;5074463;28;20001;-55
2023/09/16 13:00:55;;;;;;;;;;;24.40;55.40;;;;;;5075967;28;19915;-54
2023/09/16 13:03:21;;;;;;;;;;;24.40;55.50;;;;;;5075506;28;19915;-55
2023/09/16 13:05:50;;;;;;;;;;;24.50;55.40;;;;;;5074336;28;20396;-55
2023/09/16 13:08:16;;;;;;;;;;;24.40;55.50;;;;;;5075472;28;19909;-55
2023/09/16 13:10:42;;;;;;;;;;;24.50;55.10;;;;;;5075530;28;19977;-55
2023/09/16 13:13:07;;;;;;;;;;;24.50;54.60;;;;;;5075389;28;19915;-55
2023/09/16 13:15:33;;;;;;;;;;;24.50;54.50;;;;;;5075438;28;19958;-54
2023/09/16 13:17:59;;;;;;;;;;;24.60;54.30;;;;;;5075681;28;20349;-54
2023/09/16 13:20:25;;;;;;;;;;;24.50;54.00;;;;;;5075300;28;19915;-55
2023/09/16 13:22:54;;;;;;;;;;;24.60;54.40;;;;;;5075379;28;19991;-54
2023/09/16 13:25:26;;;;;;;;;;;24.60;54.10;;;;;;5075103;28;19919;-54
2023/09/16 13:27:51;;;;;;;;;;;24.70;53.70;;;;;;5075156;28;19908;-55
2023/09/16 13:30:21;;;;;;;;;;;24.70;53.50;;;;;;5074964;28;20015;-54
2023/09/16 13:32:51;;;;;;;;;;;24.70;53.50;;;;;;5075021;28;19913;-55
2023/09/16 13:35:17;;;;;;;;;;;24.60;53.60;;;;;;5075226;28;19912;-55
2023/09/16 13:37:43;;;;;;;;;;;24.60;53.80;;;;;;5074973;28;19908;-55
2023/09/16 13:40:14;;;;;;;;;;;24.70;52.90;;;;;;5074920;28;19993;-55
2023/09/16 13:42:40;;;;;;;;;;;24.70;52.90;;;;;;5081763;28;19908;-55
2023/09/16 13:45:06;;;;;;;;;;;24.60;53.70;;;;;;5075134;28;19909;-55
2023/09/16 13:47:31;;;;;;;;;;;24.60;53.50;;;;;;5074701;28;20049;-55
2023/09/16 13:49:56;;;;;;;;;;;24.70;53.50;;;;;;5074617;28;19916;-55
2023/09/16 13:52:22;;;;;;;;;;;24.70;52.90;;;;;;5073578;28;19920;-55
2023/09/16 13:54:47;;;;;;;;;;;24.70;52.80;;;;;;5073272;28;19916;-55
2023/09/16 13:57:14;;;;;;;;;;;24.70;52.70;;;;;;5073374;28;19919;-55
2023/09/16 13:59:39;;;;;;;;;;;24.80;52.70;;;;;;5074561;28;19909;-55
2023/09/16 14:02:05;;;;;;;;;;;24.80;52.90;;;;;;5073217;28;19915;-55
2023/09/16 14:04:30;;;;;;;;;;;24.70;52.60;;;;;;5074522;28;19920;-55
2023/09/16 14:06:56;;;;;;;;;;;24.80;52.80;;;;;;5074353;28;19919;-57
2023/09/16 14:09:21;;;;;;;;;;;24.70;52.80;;;;;;5074270;28;20284;-55